sensor_id;sensor_type;location;lat;lon;timestamp;temperature;humidity
65036;DHT22;51603;49.300;8.880;2023-07-31T00:00:06;17.20;99.90
65036;DHT22;51603;49.300;8.880;2023-07-31T00:02:31;17.20;99.90
65036;DHT22;51603;49.300;8.880;2023-07-31T00:04:57;17.20;99.90
65036;DHT22;51603;49.300;8.880;2023-07-31T00:07:23;17.20;99.90
65036;DHT22;51603;49.300;8.880;2023-07-31T00:09:48;17.20;99.90
65036;DHT22;51603;49.300;8.880;2023-07-31T00:12:14;17.10;99.90
65036;DHT22;51603;49.300;8.880;2023-07-31T00:14:39;17.10;99.90
65036;DHT22;51603;49.300;8.880;2023-07-31T00:17:05;17.20;99.90
65036;DHT22;51603;49.300;8.880;2023-07-31T00:19:30;17.20;99.90
65036;DHT22;51603;49.300;8.880;2023-07-31T00:21:56;17.20;99.90
65036;DHT22;51603;49.300;8.880;2023-07-31T00:24:21;17.30;99.90
65036;DHT22;51603;49.300;8.880;2023-07-31T00:26:47;17.30;99.90
65036;DHT22;51603;49.300;8.880;2023-07-31T00:29:12;17.30;99.90
65036;DHT22;51603;49.300;8.880;2023-07-31T00:31:38;17.30;99.90
65036;DHT22;51603;49.300;8.880;2023-07-31T00:34:04;17.40;99.90
65036;DHT22;51603;49.300;8.880;2023-07-31T00:36:29;17.40;99.90
65036;DHT22;51603;49.300;8.880;2023-07-31T00:38:55;17.40;99.90
65036;DHT22;51603;49.300;8.880;2023-07-31T00:41:21;17.40;99.90
65036;DHT22;51603;49.300;8.880;2023-07-31T00:43:46;17.40;99.90
65036;DHT22;51603;49.300;8.880;2023-07-31T00:46:12;17.50;99.90
65036;DHT22;51603;49.300;8.880;2023-07-31T00:48:39;17.60;99.90
65036;DHT22;51603;49.300;8.880;2023-07-31T00:51:04;17.60;99.90
65036;DHT22;51603;49.300;8.880;2023-07-31T00:53:30;17.70;99.90
65036;DHT22;51603;49.300;8.880;2023-07-31T00:55:56;17.70;99.90
65036;DHT22;51603;49.300;8.880;2023-07-31T00:58:22;17.80;99.90
65036;DHT22;51603;49.300;8.880;2023-07-31T01:00:48;17.80;99.90
65036;DHT22;51603;49.300;8.880;2023-07-31T01:03:16;17.90;99.90
65036;DHT22;51603;49.300;8.880;2023-07-31T01:06:11;17.90;99.90
65036;DHT22;51603;49.300;8.880;2023-07-31T01:08:44;17.90;99.90
65036;DHT22;51603;49.300;8.880;2023-07-31T01:11:15;18.00;99.90
65036;DHT22;51603;49.300;8.880;2023-07-31T01:13:42;18.00;99.90
65036;DHT22;51603;49.300;8.880;2023-07-31T01:16:09;18.10;99.90
65036;DHT22;51603;49.300;8.880;2023-07-31T01:18:34;18.10;99.90
65036;DHT22;51603;49.300;8.880;2023-07-31T01:26:34;18.20;99.90
65036;DHT22;51603;49.300;8.880;2023-07-31T01:29:17;18.10;99.90
65036;DHT22;51603;49.300;8.880;2023-07-31T01:31:48;18.00;99.90
65036;DHT22;51603;49.300;8.880;2023-07-31T01:34:17;18.00;99.90
65036;DHT22;51603;49.300;8.880;2023-07-31T01:36:44;18.00;99.90
65036;DHT22;51603;49.300;8.880;2023-07-31T01:39:10;18.10;99.90
65036;DHT22;51603;49.300;8.880;2023-07-31T01:41:35;18.10;99.90
65036;DHT22;51603;49.300;8.880;2023-07-31T01:44:01;18.10;99.90
65036;DHT22;51603;49.300;8.880;2023-07-31T01:46:26;18.00;99.90
65036;DHT22;51603;49.300;8.880;2023-07-31T01:48:52;18.10;99.90
65036;DHT22;51603;49.300;8.880;2023-07-31T01:51:17;18.00;99.90
65036;DHT22;51603;49.300;8.880;2023-07-31T01:53:43;18.10;99.90
65036;DHT22;51603;49.300;8.880;2023-07-31T01:56:08;18.00;99.90
65036;DHT22;51603;49.300;8.880;2023-07-31T01:58:34;18.00;99.90
65036;DHT22;51603;49.300;8.880;2023-07-31T02:01:00;18.00;99.90
65036;DHT22;51603;49.300;8.880;2023-07-31T02:03:25;18.00;99.90
65036;DHT22;51603;49.300;8.880;2023-07-31T02:05:51;17.90;99.90
65036;DHT22;51603;49.300;8.880;2023-07-31T02:08:16;17.90;99.90
65036;DHT22;51603;49.300;8.880;2023-07-31T02:10:42;17.80;99.90
65036;DHT22;51603;49.300;8.880;2023-07-31T02:13:08;17.80;99.90
65036;DHT22;51603;49.300;8.880;2023-07-31T02:15:33;17.70;99.90
65036;DHT22;51603;49.300;8.880;2023-07-31T02:17:59;17.70;99.90
65036;DHT22;51603;49.300;8.880;2023-07-31T02:20:25;17.70;99.90
65036;DHT22;51603;49.300;8.880;2023-07-31T02:22:51;17.70;99.90
65036;DHT22;51603;49.300;8.880;2023-07-31T02:25:16;17.70;99.90
65036;DHT22;51603;49.300;8.880;2023-07-31T02:27:42;17.70;99.90
65036;DHT22;51603;49.300;8.880;2023-07-31T02:30:08;17.80;99.90
65036;DHT22;51603;49.300;8.880;2023-07-31T02:32:33;17.70;99.90
65036;DHT22;51603;49.300;8.880;2023-07-31T02:34:59;17.70;99.90
65036;DHT22;51603;49.300;8.880;2023-07-31T02:37:25;17.60;99.90
65036;DHT22;51603;49.300;8.880;2023-07-31T02:39:51;17.60;99.90
65036;DHT22;51603;49.300;8.880;2023-07-31T02:42:17;17.60;99.90
65036;DHT22;51603;49.300;8.880;2023-07-31T02:44:42;17.60;99.90
65036;DHT22;51603;49.300;8.880;2023-07-31T02:47:08;17.60;99.90
65036;DHT22;51603;49.300;8.880;2023-07-31T02:49:33;17.50;99.90
65036;DHT22;51603;49.300;8.880;2023-07-31T02:51:59;17.60;99.90
65036;DHT22;51603;49.300;8.880;2023-07-31T02:54:24;17.60;99.90
65036;DHT22;51603;49.300;8.880;2023-07-31T02:56:50;17.50;99.90
65036;DHT22;51603;49.300;8.880;2023-07-31T02:59:16;17.40;99.90
65036;DHT22;51603;49.300;8.880;2023-07-31T03:01:42;17.40;99.90
65036;DHT22;51603;49.300;8.880;2023-07-31T03:04:07;17.40;99.90
65036;DHT22;51603;49.300;8.880;2023-07-31T03:06:33;17.50;99.90
65036;DHT22;51603;49.300;8.880;2023-07-31T03:08:59;17.50;99.90
65036;DHT22;51603;49.300;8.880;2023-07-31T03:11:24;17.50;99.90
65036;DHT22;51603;49.300;8.880;2023-07-31T03:13:50;17.60;99.90
65036;DHT22;51603;49.300;8.880;2023-07-31T03:16:15;17.50;99.90
65036;DHT22;51603;49.300;8.880;2023-07-31T03:18:41;17.50;99.90
65036;DHT22;51603;49.300;8.880;2023-07-31T03:21:06;17.50;99.90
65036;DHT22;51603;49.300;8.880;2023-07-31T03:23:32;17.40;99.90
65036;DHT22;51603;49.300;8.880;2023-07-31T03:26:02;17.40;99.90
65036;DHT22;51603;49.300;8.880;2023-07-31T03:28:29;17.30;99.90
65036;DHT22;51603;49.300;8.880;2023-07-31T03:30:55;17.30;99.90
65036;DHT22;51603;49.300;8.880;2023-07-31T03:33:20;17.30;99.90
65036;DHT22;51603;49.300;8.880;2023-07-31T03:35:46;17.20;99.90
65036;DHT22;51603;49.300;8.880;2023-07-31T03:38:12;17.20;99.90
65036;DHT22;51603;49.300;8.880;2023-07-31T03:40:37;17.10;99.90
65036;DHT22;51603;49.300;8.880;2023-07-31T03:43:03;17.10;99.90
65036;DHT22;51603;49.300;8.880;2023-07-31T03:45:28;17.00;99.90
65036;DHT22;51603;49.300;8.880;2023-07-31T03:47:54;17.00;99.90
65036;DHT22;51603;49.300;8.880;2023-07-31T03:50:20;17.00;99.90
65036;DHT22;51603;49.300;8.880;2023-07-31T03:52:46;17.00;99.90
65036;DHT22;51603;49.300;8.880;2023-07-31T03:55:11;16.90;99.90
65036;DHT22;51603;49.300;8.880;2023-07-31T03:57:37;16.90;99.90
65036;DHT22;51603;49.300;8.880;2023-07-31T04:00:03;16.90;99.90
65036;DHT22;51603;49.300;8.880;2023-07-31T04:02:29;16.90;99.90
65036;DHT22;51603;49.300;8.880;2023-07-31T04:04:54;16.90;99.90
65036;DHT22;51603;49.300;8.880;2023-07-31T04:07:20;16.90;99.90
65036;DHT22;51603;49.300;8.880;2023-07-31T04:09:45;16.90;99.90
65036;DHT22;51603;49.300;8.880;2023-07-31T04:12:11;16.90;99.90
65036;DHT22;51603;49.300;8.880;2023-07-31T04:14:36;16.90;99.90
65036;DHT22;51603;49.300;8.880;2023-07-31T04:17:02;16.90;99.90
65036;DHT22;51603;49.300;8.880;2023-07-31T04:19:28;16.80;99.90
65036;DHT22;51603;49.300;8.880;2023-07-31T04:21:53;16.80;99.90
65036;DHT22;51603;49.300;8.880;2023-07-31T04:24:19;16.80;99.90
65036;DHT22;51603;49.300;8.880;2023-07-31T04:26:50;16.90;99.90
65036;DHT22;51603;49.300;8.880;2023-07-31T04:29:15;16.90;99.90
65036;DHT22;51603;49.300;8.880;2023-07-31T04:31:41;16.90;99.90
65036;DHT22;51603;49.300;8.880;2023-07-31T04:34:07;16.90;99.90
65036;DHT22;51603;49.300;8.880;2023-07-31T04:36:33;16.90;99.90
65036;DHT22;51603;49.300;8.880;2023-07-31T04:38:59;16.90;99.90
65036;DHT22;51603;49.300;8.880;2023-07-31T04:41:25;16.90;99.90
65036;DHT22;51603;49.300;8.880;2023-07-31T04:43:50;16.90;99.90
65036;DHT22;51603;49.300;8.880;2023-07-31T04:46:16;16.90;99.90
65036;DHT22;51603;49.300;8.880;2023-07-31T04:48:41;16.90;99.90
65036;DHT22;51603;49.300;8.880;2023-07-31T04:51:07;16.90;99.90
65036;DHT22;51603;49.300;8.880;2023-07-31T04:53:33;16.90;99.90
65036;DHT22;51603;49.300;8.880;2023-07-31T04:55:58;16.90;99.90
65036;DHT22;51603;49.300;8.880;2023-07-31T04:58:24;17.00;99.90
65036;DHT22;51603;49.300;8.880;2023-07-31T05:00:49;16.90;99.90
65036;DHT22;51603;49.300;8.880;2023-07-31T05:03:15;17.00;99.90
65036;DHT22;51603;49.300;8.880;2023-07-31T05:05:40;17.00;99.90
65036;DHT22;51603;49.300;8.880;2023-07-31T05:08:06;17.00;99.90
65036;DHT22;51603;49.300;8.880;2023-07-31T05:10:31;17.00;99.90
65036;DHT22;51603;49.300;8.880;2023-07-31T05:12:57;17.10;99.90
65036;DHT22;51603;49.300;8.880;2023-07-31T05:15:23;17.10;99.90
65036;DHT22;51603;49.300;8.880;2023-07-31T05:17:48;17.10;99.90
65036;DHT22;51603;49.300;8.880;2023-07-31T05:20:14;17.10;99.90
65036;DHT22;51603;49.300;8.880;2023-07-31T05:22:40;17.10;99.90
65036;DHT22;51603;49.300;8.880;2023-07-31T05:25:06;17.10;99.90
65036;DHT22;51603;49.300;8.880;2023-07-31T05:27:32;17.10;99.90
65036;DHT22;51603;49.300;8.880;2023-07-31T05:29:58;17.10;99.90
65036;DHT22;51603;49.300;8.880;2023-07-31T05:32:23;17.10;99.90
65036;DHT22;51603;49.300;8.880;2023-07-31T05:34:51;17.10;99.90
65036;DHT22;51603;49.300;8.880;2023-07-31T05:37:17;17.10;99.90
65036;DHT22;51603;49.300;8.880;2023-07-31T05:39:43;17.10;99.90
65036;DHT22;51603;49.300;8.880;2023-07-31T05:42:08;17.10;99.90
65036;DHT22;51603;49.300;8.880;2023-07-31T05:44:34;17.10;99.90
65036;DHT22;51603;49.300;8.880;2023-07-31T05:46:59;17.10;99.90
65036;DHT22;51603;49.300;8.880;2023-07-31T05:49:25;17.10;99.90
65036;DHT22;51603;49.300;8.880;2023-07-31T05:51:50;17.10;99.90
65036;DHT22;51603;49.300;8.880;2023-07-31T05:54:16;17.20;99.90
65036;DHT22;51603;49.300;8.880;2023-07-31T05:56:42;17.30;99.90
65036;DHT22;51603;49.300;8.880;2023-07-31T05:59:09;17.30;99.90
65036;DHT22;51603;49.300;8.880;2023-07-31T06:01:35;17.40;99.90
65036;DHT22;51603;49.300;8.880;2023-07-31T06:04:00;17.50;99.90
65036;DHT22;51603;49.300;8.880;2023-07-31T06:06:27;17.70;99.90
65036;DHT22;51603;49.300;8.880;2023-07-31T06:08:52;17.80;99.90
65036;DHT22;51603;49.300;8.880;2023-07-31T06:11:20;17.90;99.90
65036;DHT22;51603;49.300;8.880;2023-07-31T06:13:46;17.90;99.90
65036;DHT22;51603;49.300;8.880;2023-07-31T06:16:14;17.90;99.90
65036;DHT22;51603;49.300;8.880;2023-07-31T06:18:41;18.00;99.90
65036;DHT22;51603;49.300;8.880;2023-07-31T06:21:07;18.10;99.90
65036;DHT22;51603;49.300;8.880;2023-07-31T06:23:33;18.10;99.90
65036;DHT22;51603;49.300;8.880;2023-07-31T06:25:58;18.10;99.90
65036;DHT22;51603;49.300;8.880;2023-07-31T06:28:28;18.00;99.90
65036;DHT22;51603;49.300;8.880;2023-07-31T06:30:54;18.00;99.90
65036;DHT22;51603;49.300;8.880;2023-07-31T06:33:20;18.00;99.90
65036;DHT22;51603;49.300;8.880;2023-07-31T06:35:45;18.00;99.90
65036;DHT22;51603;49.300;8.880;2023-07-31T06:38:11;18.00;99.90
65036;DHT22;51603;49.300;8.880;2023-07-31T06:40:36;18.00;99.90
65036;DHT22;51603;49.300;8.880;2023-07-31T06:43:02;18.10;99.90
65036;DHT22;51603;49.300;8.880;2023-07-31T06:45:34;18.00;99.90
65036;DHT22;51603;49.300;8.880;2023-07-31T06:48:00;18.10;99.90
65036;DHT22;51603;49.300;8.880;2023-07-31T06:50:28;18.00;99.90
65036;DHT22;51603;49.300;8.880;2023-07-31T06:52:53;18.10;99.90
65036;DHT22;51603;49.300;8.880;2023-07-31T06:55:20;18.10;99.90
65036;DHT22;51603;49.300;8.880;2023-07-31T06:57:47;18.10;99.90
65036;DHT22;51603;49.300;8.880;2023-07-31T07:00:14;18.10;99.90
65036;DHT22;51603;49.300;8.880;2023-07-31T07:02:39;18.10;99.90
65036;DHT22;51603;49.300;8.880;2023-07-31T07:05:06;18.20;99.90
65036;DHT22;51603;49.300;8.880;2023-07-31T07:07:32;18.10;99.90
65036;DHT22;51603;49.300;8.880;2023-07-31T07:09:58;18.20;99.90
65036;DHT22;51603;49.300;8.880;2023-07-31T07:12:25;18.20;99.90
65036;DHT22;51603;49.300;8.880;2023-07-31T07:14:50;18.10;99.90
65036;DHT22;51603;49.300;8.880;2023-07-31T07:17:18;18.10;99.90
65036;DHT22;51603;49.300;8.880;2023-07-31T07:19:44;18.10;99.90
65036;DHT22;51603;49.300;8.880;2023-07-31T07:22:11;18.10;99.90
65036;DHT22;51603;49.300;8.880;2023-07-31T07:24:37;18.20;99.90
65036;DHT22;51603;49.300;8.880;2023-07-31T07:27:03;18.20;99.90
65036;DHT22;51603;49.300;8.880;2023-07-31T07:29:28;18.30;99.90
65036;DHT22;51603;49.300;8.880;2023-07-31T07:31:54;18.40;99.90
65036;DHT22;51603;49.300;8.880;2023-07-31T07:34:19;18.50;99.90
65036;DHT22;51603;49.300;8.880;2023-07-31T07:36:48;18.60;99.90
65036;DHT22;51603;49.300;8.880;2023-07-31T07:39:14;18.80;99.90
65036;DHT22;51603;49.300;8.880;2023-07-31T07:41:39;19.00;99.90
65036;DHT22;51603;49.300;8.880;2023-07-31T07:44:05;19.00;99.90
65036;DHT22;51603;49.300;8.880;2023-07-31T07:46:30;19.10;99.90
65036;DHT22;51603;49.300;8.880;2023-07-31T07:48:56;19.10;99.90
65036;DHT22;51603;49.300;8.880;2023-07-31T07:51:21;19.30;99.90
65036;DHT22;51603;49.300;8.880;2023-07-31T07:53:47;19.50;99.90
65036;DHT22;51603;49.300;8.880;2023-07-31T07:56:12;19.50;99.90
65036;DHT22;51603;49.300;8.880;2023-07-31T07:58:38;19.50;99.90
65036;DHT22;51603;49.300;8.880;2023-07-31T08:01:04;19.50;99.90
65036;DHT22;51603;49.300;8.880;2023-07-31T08:03:29;19.50;99.90
65036;DHT22;51603;49.300;8.880;2023-07-31T08:05:59;19.50;99.90
65036;DHT22;51603;49.300;8.880;2023-07-31T08:08:24;19.50;99.90
65036;DHT22;51603;49.300;8.880;2023-07-31T08:10:50;19.70;99.90
65036;DHT22;51603;49.300;8.880;2023-07-31T08:13:15;19.80;99.90
65036;DHT22;51603;49.300;8.880;2023-07-31T08:15:42;19.80;99.90
65036;DHT22;51603;49.300;8.880;2023-07-31T08:18:09;19.80;99.90
65036;DHT22;51603;49.300;8.880;2023-07-31T08:20:35;19.80;99.90
65036;DHT22;51603;49.300;8.880;2023-07-31T08:23:00;19.80;99.90
65036;DHT22;51603;49.300;8.880;2023-07-31T08:25:26;19.80;99.90
65036;DHT22;51603;49.300;8.880;2023-07-31T08:27:52;19.70;99.90
65036;DHT22;51603;49.300;8.880;2023-07-31T08:30:18;19.70;99.90
65036;DHT22;51603;49.300;8.880;2023-07-31T08:32:44;19.80;99.90
65036;DHT22;51603;49.300;8.880;2023-07-31T08:35:09;19.80;99.90
65036;DHT22;51603;49.300;8.880;2023-07-31T08:37:35;19.80;99.90
65036;DHT22;51603;49.300;8.880;2023-07-31T08:40:01;19.80;99.90
65036;DHT22;51603;49.300;8.880;2023-07-31T08:42:26;19.80;99.90
65036;DHT22;51603;49.300;8.880;2023-07-31T08:44:52;19.80;99.90
65036;DHT22;51603;49.300;8.880;2023-07-31T08:47:19;19.80;99.90
65036;DHT22;51603;49.300;8.880;2023-07-31T08:49:46;19.80;99.90
65036;DHT22;51603;49.300;8.880;2023-07-31T08:52:12;19.80;99.90
65036;DHT22;51603;49.300;8.880;2023-07-31T08:54:38;19.80;99.90
65036;DHT22;51603;49.300;8.880;2023-07-31T08:57:05;19.80;99.90
65036;DHT22;51603;49.300;8.880;2023-07-31T08:59:34;19.80;99.90
65036;DHT22;51603;49.300;8.880;2023-07-31T09:02:07;19.90;99.90
65036;DHT22;51603;49.300;8.880;2023-07-31T09:04:34;20.00;99.90
65036;DHT22;51603;49.300;8.880;2023-07-31T09:07:01;20.00;99.90
65036;DHT22;51603;49.300;8.880;2023-07-31T09:09:30;20.00;99.90
65036;DHT22;51603;49.300;8.880;2023-07-31T09:11:56;20.10;99.90
65036;DHT22;51603;49.300;8.880;2023-07-31T09:14:27;20.20;99.90
65036;DHT22;51603;49.300;8.880;2023-07-31T09:16:56;20.20;99.90
65036;DHT22;51603;49.300;8.880;2023-07-31T09:19:34;20.20;99.90
65036;DHT22;51603;49.300;8.880;2023-07-31T09:22:02;20.20;99.90
65036;DHT22;51603;49.300;8.880;2023-07-31T09:24:29;20.20;99.90
65036;DHT22;51603;49.300;8.880;2023-07-31T09:26:56;20.20;99.90
65036;DHT22;51603;49.300;8.880;2023-07-31T09:29:22;20.30;99.90
65036;DHT22;51603;49.300;8.880;2023-07-31T09:31:48;20.30;99.90
65036;DHT22;51603;49.300;8.880;2023-07-31T09:34:14;20.20;99.90
65036;DHT22;51603;49.300;8.880;2023-07-31T09:36:43;20.30;99.90
65036;DHT22;51603;49.300;8.880;2023-07-31T09:39:11;20.40;99.90
65036;DHT22;51603;49.300;8.880;2023-07-31T09:41:42;20.40;99.90
65036;DHT22;51603;49.300;8.880;2023-07-31T09:44:08;20.50;99.90
65036;DHT22;51603;49.300;8.880;2023-07-31T09:46:37;20.80;99.90
65036;DHT22;51603;49.300;8.880;2023-07-31T09:49:13;21.20;99.90
65036;DHT22;51603;49.300;8.880;2023-07-31T09:51:40;21.40;99.90
65036;DHT22;51603;49.300;8.880;2023-07-31T09:54:13;21.50;99.90
65036;DHT22;51603;49.300;8.880;2023-07-31T09:56:48;21.30;99.90
65036;DHT22;51603;49.300;8.880;2023-07-31T09:59:16;21.40;99.90
65036;DHT22;51603;49.300;8.880;2023-07-31T10:01:43;21.50;99.90
65036;DHT22;51603;49.300;8.880;2023-07-31T10:04:10;21.50;99.80
65036;DHT22;51603;49.300;8.880;2023-07-31T10:06:36;21.50;99.70
65036;DHT22;51603;49.300;8.880;2023-07-31T10:09:06;21.70;99.90
65036;DHT22;51603;49.300;8.880;2023-07-31T10:11:45;21.90;99.00
65036;DHT22;51603;49.300;8.880;2023-07-31T10:14:22;22.10;99.20
65036;DHT22;51603;49.300;8.880;2023-07-31T10:16:49;22.30;98.60
65036;DHT22;51603;49.300;8.880;2023-07-31T10:19:16;22.20;98.30
65036;DHT22;51603;49.300;8.880;2023-07-31T10:21:42;22.10;98.00
65036;DHT22;51603;49.300;8.880;2023-07-31T10:24:09;21.80;98.10
65036;DHT22;51603;49.300;8.880;2023-07-31T10:26:35;21.70;98.90
65036;DHT22;51603;49.300;8.880;2023-07-31T10:29:03;21.70;99.00
65036;DHT22;51603;49.300;8.880;2023-07-31T10:31:29;21.60;98.80
65036;DHT22;51603;49.300;8.880;2023-07-31T10:33:56;21.60;98.90
65036;DHT22;51603;49.300;8.880;2023-07-31T10:36:23;21.60;99.10
65036;DHT22;51603;49.300;8.880;2023-07-31T10:38:49;21.60;99.20
65036;DHT22;51603;49.300;8.880;2023-07-31T10:41:16;21.60;98.50
65036;DHT22;51603;49.300;8.880;2023-07-31T10:43:42;21.50;98.50
65036;DHT22;51603;49.300;8.880;2023-07-31T10:46:14;21.60;98.90
65036;DHT22;51603;49.300;8.880;2023-07-31T10:48:41;21.70;98.70
65036;DHT22;51603;49.300;8.880;2023-07-31T10:51:11;21.70;98.30
65036;DHT22;51603;49.300;8.880;2023-07-31T10:53:38;21.70;98.50
65036;DHT22;51603;49.300;8.880;2023-07-31T10:56:06;21.80;98.80
65036;DHT22;51603;49.300;8.880;2023-07-31T10:58:33;21.70;98.40
65036;DHT22;51603;49.300;8.880;2023-07-31T11:01:04;21.70;98.40
65036;DHT22;51603;49.300;8.880;2023-07-31T11:03:45;21.70;98.40
65036;DHT22;51603;49.300;8.880;2023-07-31T11:06:12;21.70;98.20
65036;DHT22;51603;49.300;8.880;2023-07-31T11:08:49;21.70;98.80
65036;DHT22;51603;49.300;8.880;2023-07-31T11:11:16;21.70;98.60
65036;DHT22;51603;49.300;8.880;2023-07-31T11:13:51;21.80;98.50
65036;DHT22;51603;49.300;8.880;2023-07-31T11:16:19;21.70;98.60
65036;DHT22;51603;49.300;8.880;2023-07-31T11:18:47;21.70;99.20
65036;DHT22;51603;49.300;8.880;2023-07-31T11:21:18;21.60;98.60
65036;DHT22;51603;49.300;8.880;2023-07-31T11:23:57;21.60;99.00
65036;DHT22;51603;49.300;8.880;2023-07-31T11:26:24;21.60;99.50
65036;DHT22;51603;49.300;8.880;2023-07-31T11:28:50;21.60;99.30
65036;DHT22;51603;49.300;8.880;2023-07-31T11:31:17;21.60;99.20
65036;DHT22;51603;49.300;8.880;2023-07-31T11:33:43;21.70;98.90
65036;DHT22;51603;49.300;8.880;2023-07-31T11:36:16;21.80;98.50
65036;DHT22;51603;49.300;8.880;2023-07-31T11:38:42;21.80;99.10
65036;DHT22;51603;49.300;8.880;2023-07-31T11:41:07;21.90;98.60
65036;DHT22;51603;49.300;8.880;2023-07-31T11:43:33;22.00;99.00
65036;DHT22;51603;49.300;8.880;2023-07-31T11:46:02;22.10;99.10
65036;DHT22;51603;49.300;8.880;2023-07-31T11:48:30;22.20;98.70
65036;DHT22;51603;49.300;8.880;2023-07-31T11:51:00;22.20;98.70
65036;DHT22;51603;49.300;8.880;2023-07-31T11:53:50;22.10;98.10
65036;DHT22;51603;49.300;8.880;2023-07-31T11:56:20;22.00;98.00
65036;DHT22;51603;49.300;8.880;2023-07-31T11:58:48;22.00;98.60
65036;DHT22;51603;49.300;8.880;2023-07-31T12:01:15;22.00;98.50
65036;DHT22;51603;49.300;8.880;2023-07-31T12:03:44;22.00;98.50
65036;DHT22;51603;49.300;8.880;2023-07-31T12:06:10;22.00;98.40
65036;DHT22;51603;49.300;8.880;2023-07-31T12:08:36;21.90;98.50
65036;DHT22;51603;49.300;8.880;2023-07-31T12:11:06;21.90;98.60
65036;DHT22;51603;49.300;8.880;2023-07-31T12:13:33;22.00;98.60
65036;DHT22;51603;49.300;8.880;2023-07-31T12:16:00;22.00;98.80
65036;DHT22;51603;49.300;8.880;2023-07-31T12:18:30;22.10;98.90
65036;DHT22;51603;49.300;8.880;2023-07-31T12:20:59;22.20;99.10
65036;DHT22;51603;49.300;8.880;2023-07-31T12:23:33;22.20;98.70
65036;DHT22;51603;49.300;8.880;2023-07-31T12:26:10;22.30;98.50
65036;DHT22;51603;49.300;8.880;2023-07-31T12:28:43;22.30;98.80
65036;DHT22;51603;49.300;8.880;2023-07-31T12:31:17;22.30;98.50
65036;DHT22;51603;49.300;8.880;2023-07-31T12:33:45;22.20;98.60
65036;DHT22;51603;49.300;8.880;2023-07-31T12:36:12;22.30;98.60
65036;DHT22;51603;49.300;8.880;2023-07-31T12:38:38;22.30;98.70
65036;DHT22;51603;49.300;8.880;2023-07-31T12:41:04;22.30;98.50
65036;DHT22;51603;49.300;8.880;2023-07-31T12:43:32;22.10;98.00
65036;DHT22;51603;49.300;8.880;2023-07-31T12:45:58;22.30;98.60
65036;DHT22;51603;49.300;8.880;2023-07-31T12:48:24;22.40;98.30
65036;DHT22;51603;49.300;8.880;2023-07-31T12:50:49;22.60;99.30
65036;DHT22;51603;49.300;8.880;2023-07-31T12:53:15;23.00;98.20
65036;DHT22;51603;49.300;8.880;2023-07-31T12:55:41;23.20;97.60
65036;DHT22;51603;49.300;8.880;2023-07-31T12:58:07;23.30;97.50
65036;DHT22;51603;49.300;8.880;2023-07-31T13:00:32;23.10;96.90
65036;DHT22;51603;49.300;8.880;2023-07-31T13:02:58;23.10;97.30
65036;DHT22;51603;49.300;8.880;2023-07-31T13:05:24;23.00;97.90
65036;DHT22;51603;49.300;8.880;2023-07-31T13:07:49;22.90;97.60
65036;DHT22;51603;49.300;8.880;2023-07-31T13:10:15;22.60;97.40
65036;DHT22;51603;49.300;8.880;2023-07-31T13:12:41;22.50;98.10
65036;DHT22;51603;49.300;8.880;2023-07-31T13:15:07;22.40;97.90
65036;DHT22;51603;49.300;8.880;2023-07-31T13:17:33;22.20;98.00
65036;DHT22;51603;49.300;8.880;2023-07-31T13:19:58;22.10;98.40
65036;DHT22;51603;49.300;8.880;2023-07-31T13:22:24;22.10;98.80
65036;DHT22;51603;49.300;8.880;2023-07-31T13:24:50;22.10;98.80
65036;DHT22;51603;49.300;8.880;2023-07-31T13:27:16;22.10;99.00
65036;DHT22;51603;49.300;8.880;2023-07-31T13:29:44;22.20;99.30
65036;DHT22;51603;49.300;8.880;2023-07-31T13:32:10;22.20;99.30
65036;DHT22;51603;49.300;8.880;2023-07-31T13:34:35;22.20;99.10
65036;DHT22;51603;49.300;8.880;2023-07-31T13:37:01;22.30;98.60
65036;DHT22;51603;49.300;8.880;2023-07-31T13:39:26;22.50;98.70
65036;DHT22;51603;49.300;8.880;2023-07-31T13:41:52;22.40;98.40
65036;DHT22;51603;49.300;8.880;2023-07-31T13:44:17;22.40;98.60
65036;DHT22;51603;49.300;8.880;2023-07-31T13:46:43;22.50;98.70
65036;DHT22;51603;49.300;8.880;2023-07-31T13:49:08;22.50;98.90
65036;DHT22;51603;49.300;8.880;2023-07-31T13:51:34;22.60;98.80
65036;DHT22;51603;49.300;8.880;2023-07-31T13:54:00;22.60;98.70
65036;DHT22;51603;49.300;8.880;2023-07-31T13:56:26;22.70;98.70
65036;DHT22;51603;49.300;8.880;2023-07-31T13:58:52;22.60;99.00
65036;DHT22;51603;49.300;8.880;2023-07-31T14:01:17;22.60;98.50
65036;DHT22;51603;49.300;8.880;2023-07-31T14:03:43;22.50;98.30
65036;DHT22;51603;49.300;8.880;2023-07-31T14:06:08;22.50;98.90
65036;DHT22;51603;49.300;8.880;2023-07-31T14:08:34;22.50;98.30
65036;DHT22;51603;49.300;8.880;2023-07-31T14:10:59;22.50;98.10
65036;DHT22;51603;49.300;8.880;2023-07-31T14:13:25;22.50;97.90
65036;DHT22;51603;49.300;8.880;2023-07-31T14:15:50;22.40;98.10
65036;DHT22;51603;49.300;8.880;2023-07-31T14:18:17;22.40;98.70
65036;DHT22;51603;49.300;8.880;2023-07-31T14:20:43;22.30;98.60
65036;DHT22;51603;49.300;8.880;2023-07-31T14:23:08;22.30;99.00
65036;DHT22;51603;49.300;8.880;2023-07-31T14:25:34;22.20;98.90
65036;DHT22;51603;49.300;8.880;2023-07-31T14:27:59;22.10;99.40
65036;DHT22;51603;49.300;8.880;2023-07-31T14:30:25;22.00;99.30
65036;DHT22;51603;49.300;8.880;2023-07-31T14:32:50;22.00;99.70
65036;DHT22;51603;49.300;8.880;2023-07-31T14:35:16;21.90;99.90
65036;DHT22;51603;49.300;8.880;2023-07-31T14:37:45;21.80;99.90
65036;DHT22;51603;49.300;8.880;2023-07-31T14:40:12;21.80;99.90
65036;DHT22;51603;49.300;8.880;2023-07-31T14:42:39;21.80;99.90
65036;DHT22;51603;49.300;8.880;2023-07-31T14:45:07;21.80;99.90
65036;DHT22;51603;49.300;8.880;2023-07-31T14:47:33;21.80;99.90
65036;DHT22;51603;49.300;8.880;2023-07-31T14:49:59;21.80;99.90
65036;DHT22;51603;49.300;8.880;2023-07-31T14:52:25;21.80;99.90
65036;DHT22;51603;49.300;8.880;2023-07-31T14:54:51;21.80;99.90
65036;DHT22;51603;49.300;8.880;2023-07-31T14:57:17;21.80;99.90
65036;DHT22;51603;49.300;8.880;2023-07-31T14:59:44;21.80;99.90
65036;DHT22;51603;49.300;8.880;2023-07-31T15:02:10;21.80;99.90
65036;DHT22;51603;49.300;8.880;2023-07-31T15:04:36;21.90;99.90
65036;DHT22;51603;49.300;8.880;2023-07-31T15:07:02;21.90;99.90
65036;DHT22;51603;49.300;8.880;2023-07-31T15:09:27;21.90;99.90
65036;DHT22;51603;49.300;8.880;2023-07-31T15:11:53;21.90;99.90
65036;DHT22;51603;49.300;8.880;2023-07-31T15:14:19;22.00;99.90
65036;DHT22;51603;49.300;8.880;2023-07-31T15:16:45;22.00;99.90
65036;DHT22;51603;49.300;8.880;2023-07-31T15:19:10;22.10;99.90
65036;DHT22;51603;49.300;8.880;2023-07-31T15:21:39;22.20;99.90
65036;DHT22;51603;49.300;8.880;2023-07-31T15:24:05;22.30;99.90
65036;DHT22;51603;49.300;8.880;2023-07-31T15:26:30;22.70;99.90
65036;DHT22;51603;49.300;8.880;2023-07-31T15:29:03;23.10;99.30
65036;DHT22;51603;49.300;8.880;2023-07-31T15:31:31;23.20;99.40